Time;durP1;ratioP1;P1;durP2;ratioP2;P2;SDS_P1;SDS_P2;PMS_P1;PMS_P2;Temp;Humidity;BMP_temperature;BMP_pressure;BME280_temperature;BME280_humidity;BME280_pressure;Samples;Min_cycle;Max_cycle;Signal;HPM_P1;HPM_P2
2021/12/30 00:01:20;;;;;;;13.55;8.05;;;;;;;4.04;nan;94572.94;6091645;23;20014;-86
2021/12/30 00:03:48;;;;;;;12.18;6.97;;;;;;;4.36;nan;94574.78;6093872;23;20006;-86
2021/12/30 00:06:16;;;;;;;14.43;9.05;;;;;;;4.01;nan;94575.25;6068215;23;20042;-87
2021/12/30 00:08:42;;;;;;;12.65;7.22;;;;;;;3.89;nan;94528.94;6094340;23;20010;-86
2021/12/30 00:11:08;;;;;;;12.55;7.63;;;;;;;3.54;nan;94491.88;6068829;23;20093;-86
2021/12/30 00:13:35;;;;;;;11.38;8.10;;;;;;;4.06;nan;94577.91;6068232;23;20010;-86
2021/12/30 00:16:00;;;;;;;11.63;7.07;;;;;;;3.71;nan;94562.59;6091646;23;20014;-86
2021/12/30 00:18:26;;;;;;;10.40;6.97;;;;;;;3.38;nan;94479.63;6093434;23;20085;-86
2021/12/30 00:20:53;;;;;;;10.63;6.68;;;;;;;3.67;nan;94577.22;6067869;23;20014;-86
2021/12/30 00:23:18;;;;;;;10.93;6.82;;;;;;;2.90;nan;94426.16;6068621;23;20510;-86
2021/12/30 00:25:44;;;;;;;9.30;6.60;;;;;;;3.22;nan;94483.13;6068830;23;20053;-86
2021/12/30 00:28:18;;;;;;;12.30;6.63;;;;;;;4.14;nan;94612.38;6105074;23;20065;-86
2021/12/30 00:30:44;;;;;;;10.00;6.35;;;;;;;3.53;nan;94547.97;6069694;23;20006;-86
2021/12/30 00:33:10;;;;;;;10.30;6.35;;;;;;;1.07;nan;94140.53;6068369;23;20101;-86
2021/12/30 00:35:37;;;;;;;13.68;6.22;;;;;;;4.00;nan;94587.56;6067464;23;20045;-86
2021/12/30 00:38:06;;;;;;;9.13;5.30;;;;;;;3.50;nan;94498.66;6091882;23;20037;-86
2021/12/30 00:40:32;;;;;;;9.98;5.65;;;;;;;2.64;nan;94393.66;6066997;23;20010;-86
2021/12/30 00:42:59;;;;;;;9.77;5.38;;;;;;;4.39;nan;94632.06;6068087;23;20006;-86
2021/12/30 00:45:27;;;;;;;7.25;4.68;;;;;;;4.26;nan;94635.88;6067989;23;20431;-86
2021/12/30 00:47:53;;;;;;;10.60;6.57;;;;;;;4.37;nan;94606.06;6068937;23;20097;-86
2021/12/30 00:50:19;;;;;;;10.65;5.38;;;;;;;4.53;nan;94638.50;6068738;23;20038;-86
2021/12/30 00:52:45;;;;;;;7.25;4.75;;;;;;;4.13;nan;94600.31;6092490;23;20089;-86
2021/12/30 00:55:11;;;;;;;8.32;4.90;;;;;;;4.46;nan;94632.66;6093900;23;20045;-86
2021/12/30 00:57:36;;;;;;;8.13;4.78;;;;;;;2.01;nan;94305.16;6123316;23;20018;-87
2021/12/30 01:00:06;;;;;;;7.57;4.57;;;;;;;4.04;nan;94598.38;6099198;23;20010;-87
2021/12/30 01:02:32;;;;;;;10.80;5.55;;;;;;;3.28;nan;94490.03;6120999;23;20014;-86
2021/12/30 01:04:57;;;;;;;6.88;4.40;;;;;;;4.32;nan;94653.25;6120670;23;20040;-86
2021/12/30 01:07:23;;;;;;;7.75;4.40;;;;;;;3.86;nan;94592.41;6120672;23;20446;-86
2021/12/30 01:09:49;;;;;;;6.80;4.57;;;;;;;3.78;nan;94618.28;6119341;23;20002;-86
2021/12/30 01:12:15;;;;;;;7.53;4.43;;;;;;;3.43;nan;94553.88;6096275;23;20014;-86
2021/12/30 01:14:45;;;;;;;7.85;4.60;;;;;;;4.26;nan;94657.69;6121726;23;20065;-86
2021/12/30 01:17:21;;;;;;;7.78;5.07;;;;;;;3.04;nan;94469.31;6120919;23;20441;-87
2021/12/30 01:19:46;;;;;;;9.25;5.20;;;;;;;4.00;nan;94641.88;6121936;23;20045;-86
2021/12/30 01:22:16;;;;;;;8.27;4.88;;;;;;;2.90;nan;94465.44;6095135;23;20018;-86
2021/12/30 01:24:42;;;;;;;8.15;4.82;;;;;;;3.49;nan;94580.97;6095743;23;20005;-86
2021/12/30 01:27:10;;;;;;;8.60;5.15;;;;;;;1.48;nan;94233.34;6121579;23;20033;-86
2021/12/30 01:29:36;;;;;;;7.13;4.88;;;;;;;3.14;nan;94479.09;6119952;23;20073;-86
2021/12/30 01:32:02;;;;;;;8.20;4.72;;;;;;;4.02;nan;94660.81;6095256;23;20093;-86
2021/12/30 01:34:28;;;;;;;7.50;4.22;;;;;;;3.88;nan;94634.94;6120851;23;20342;-86
2021/12/30 01:37:00;;;;;;;9.25;5.32;;;;;;;4.02;nan;94655.56;6095597;23;20009;-86
2021/12/30 01:39:26;;;;;;;7.07;4.35;;;;;;;3.38;nan;94529.44;6119689;23;20065;-86
2021/12/30 01:41:51;;;;;;;11.02;4.60;;;;;;;2.97;nan;94470.53;6121924;23;20013;-86
2021/12/30 01:44:17;;;;;;;7.05;4.90;;;;;;;3.80;nan;94626.72;6097078;23;20569;-86
2021/12/30 01:46:44;;;;;;;8.07;4.45;;;;;;;2.93;nan;94451.88;6121243;23;20010;-87
2021/12/30 01:49:11;;;;;;;7.60;4.95;;;;;;;1.58;nan;94244.97;6120978;23;20391;-86
2021/12/30 01:51:38;;;;;;;8.07;5.05;;;;;;;2.93;nan;94470.22;6059099;23;20143;-86
2021/12/30 01:54:06;;;;;;;6.60;4.00;;;;;;;3.30;nan;94535.91;387903;23;10022797;-86
2021/12/30 01:56:32;;;;;;;6.40;4.40;;;;;;;3.49;nan;94566.03;6104645;23;20404;-86
2021/12/30 01:58:58;;;;;;;8.20;4.97;;;;;;;3.85;nan;94621.50;6124432;23;20072;-86
2021/12/30 02:01:24;;;;;;;5.72;4.50;;;;;;;4.28;nan;94665.28;6121770;23;20095;-86
2021/12/30 02:03:50;;;;;;;7.75;4.93;;;;;;;3.15;nan;94520.00;6095410;23;20398;-86
2021/12/30 02:06:16;;;;;;;7.40;4.43;;;;;;;4.12;nan;94655.69;6120996;23;20006;-87
2021/12/30 02:08:42;;;;;;;5.63;4.03;;;;;;;3.62;nan;94585.03;6120524;23;20009;-86
2021/12/30 02:11:08;;;;;;;7.15;4.15;;;;;;;3.18;nan;94514.28;6120268;23;20020;-86
2021/12/30 02:13:33;;;;;;;6.32;4.63;;;;;;;2.98;nan;94478.13;6122717;23;20017;-86
2021/12/30 02:16:02;;;;;;;5.60;4.13;;;;;;;3.53;nan;94553.22;6120115;23;20018;-86
2021/12/30 02:18:31;;;;;;;6.97;4.47;;;;;;;3.92;nan;94637.84;6121043;23;20010;-86
2021/12/30 02:20:59;;;;;;;7.38;4.47;;;;;;;4.14;nan;94650.97;6121103;23;20437;-86
2021/12/30 02:23:27;;;;;;;6.18;4.00;;;;;;;3.11;nan;94518.91;6121195;23;20433;-86
2021/12/30 02:25:58;;;;;;;7.65;4.35;;;;;;;3.51;nan;94538.78;6096090;23;20092;-86
2021/12/30 02:28:28;;;;;;;8.93;4.93;;;;;;;4.36;nan;94683.22;6120492;23;20005;-86
2021/12/30 02:30:56;;;;;;;5.45;3.80;;;;;;;4.24;nan;94669.44;6120192;23;20002;-86
2021/12/30 02:33:22;;;;;;;7.45;4.25;;;;;;;3.43;nan;94532.91;6120438;23;20025;-86
2021/12/30 02:35:49;;;;;;;7.68;4.38;;;;;;;4.38;nan;94686.41;6119991;23;20073;-86
2021/12/30 02:38:16;;;;;;;8.20;4.78;;;;;;;2.05;nan;94384.75;6121920;23;20006;-86
2021/12/30 02:40:44;;;;;;;6.47;4.25;;;;;;;2.39;nan;94395.13;6095667;23;20509;-87
2021/12/30 02:43:23;;;;;;;7.13;4.45;;;;;;;3.58;nan;94618.03;6122254;23;20024;-86
2021/12/30 02:45:49;;;;;;;8.93;4.43;;;;;;;3.46;nan;94555.22;6120321;23;20473;-86
2021/12/30 02:48:18;;;;;;;5.68;3.63;;;;;;;1.12;nan;94215.56;6119816;23;20045;-86
2021/12/30 02:50:46;;;;;;;6.88;4.03;;;;;;;1.38;nan;94230.56;6120393;23;19998;-86
2021/12/30 02:53:12;;;;;;;6.55;3.58;;;;;;;3.68;nan;94610.28;6096123;23;20016;-86
2021/12/30 02:55:39;;;;;;;9.05;3.33;;;;;;;4.37;nan;94724.19;6119537;23;20018;-86
2021/12/30 02:58:05;;;;;;;6.03;3.20;;;;;;;3.08;nan;94528.03;6120631;23;20056;-86
2021/12/30 03:00:34;;;;;;;6.43;3.25;;;;;;;4.16;nan;94711.88;6119688;23;20114;-86
2021/12/30 03:03:00;;;;;;;7.35;3.92;;;;;;;3.61;nan;94620.16;6097071;23;20100;-87
2021/12/30 03:05:25;;;;;;;4.07;3.05;;;;;;;3.20;nan;94580.34;6120247;23;20006;-87
2021/12/30 03:07:52;;;;;;;5.22;3.45;;;;;;;3.86;nan;94699.97;6120281;23;20010;-86
2021/12/30 03:10:21;;;;;;;5.35;2.92;;;;;;;3.49;nan;94621.09;6121085;23;20002;-86
2021/12/30 03:12:52;;;;;;;7.22;3.25;;;;;;;3.57;nan;94627.75;6096041;23;20013;-87
2021/12/30 03:15:18;;;;;;;6.07;3.45;;;;;;;3.91;nan;94685.31;6120566;23;20014;-86
2021/12/30 03:17:44;;;;;;;6.95;3.97;;;;;;;3.80;nan;94650.31;6120010;23;20113;-86
2021/12/30 03:20:10;;;;;;;5.88;3.38;;;;;;;2.19;nan;94451.38;6119998;23;20661;-86
2021/12/30 03:22:37;;;;;;;4.97;3.13;;;;;;;4.22;nan;94761.56;6122101;23;20418;-85
2021/12/30 03:25:06;;;;;;;5.40;3.13;;;;;;;3.52;nan;94627.66;6119760;23;20037;-86
2021/12/30 03:27:31;;;;;;;7.60;3.13;;;;;;;1.53;nan;94356.22;6121826;23;20009;-86
2021/12/30 03:29:57;;;;;;;5.22;2.75;;;;;;;4.28;nan;94744.03;6119740;23;20006;-86
2021/12/30 03:32:22;;;;;;;6.13;3.42;;;;;;;4.18;nan;94713.22;6120135;23;20124;-86
2021/12/30 03:34:48;;;;;;;9.38;4.00;;;;;;;4.36;nan;94758.56;6097341;23;20037;-86
2021/12/30 03:37:13;;;;;;;10.13;3.25;;;;;;;4.08;nan;94723.59;6121554;23;20036;-86
2021/12/30 03:39:40;;;;;;;6.38;3.60;;;;;;;-0.11;nan;94063.31;6097379;23;20038;-86
2021/12/30 03:42:07;;;;;;;6.15;3.63;;;;;;;1.16;nan;94250.63;6122104;23;20060;-87
2021/12/30 03:44:35;;;;;;;5.20;3.22;;;;;;;2.05;nan;94389.19;6122319;23;20005;-86
2021/12/30 03:47:00;;;;;;;5.97;3.22;;;;;;;3.28;nan;94593.00;6121326;23;20393;-86
2021/12/30 03:49:27;;;;;;;4.03;2.50;;;;;;;3.51;nan;94596.47;6123119;23;20002;-86
2021/12/30 03:51:55;;;;;;;5.35;3.08;;;;;;;3.86;nan;94654.59;6121730;23;20010;-86
2021/12/30 03:54:20;;;;;;;7.22;2.75;;;;;;;4.34;nan;94729.16;6121439;23;20049;-86
2021/12/30 03:56:48;;;;;;;5.82;2.33;;;;;;;4.07;nan;94672.16;6121866;23;20477;-86
2021/12/30 03:59:14;;;;;;;6.10;2.60;;;;;;;2.41;nan;94477.63;6121302;23;20009;-86
2021/12/30 04:01:40;;;;;;;5.13;2.42;;;;;;;-0.74;nan;93945.47;6121893;23;20020;-86
2021/12/30 04:04:08;;;;;;;3.42;2.35;;;;;;;4.10;nan;94700.53;6122143;23;20013;-86
2021/12/30 04:06:34;;;;;;;3.58;2.30;;;;;;;4.42;nan;94768.09;6097309;23;20005;-86
2021/12/30 04:08:59;;;;;;;4.30;2.40;;;;;;;-0.62;nan;94029.56;6121879;23;20017;-86
2021/12/30 04:11:30;;;;;;;3.72;2.42;;;;;;;2.45;nan;94499.66;6122200;23;20010;-86
2021/12/30 04:13:56;;;;;;;3.30;2.42;;;;;;;3.89;nan;94723.06;6121625;23;20017;-86
2021/12/30 04:16:21;;;;;;;5.45;3.00;;;;;;;4.07;nan;94742.19;6097001;23;20010;-86
2021/12/30 04:18:48;;;;;;;3.47;2.40;;;;;;;4.47;nan;94799.66;6097937;23;20006;-86
2021/12/30 04:21:18;;;;;;;4.80;3.20;;;;;;;4.53;nan;94793.44;6121791;23;20024;-86
2021/12/30 04:23:45;;;;;;;4.35;2.80;;;;;;;4.23;nan;94744.78;6122743;23;20032;-86
2021/12/30 04:26:10;;;;;;;5.90;3.38;;;;;;;4.63;nan;94799.59;6100967;23;20025;-86
2021/12/30 04:28:36;;;;;;;7.30;3.78;;;;;;;4.59;nan;94798.50;6101416;23;20002;-86
2021/12/30 04:31:03;;;;;;;7.70;3.22;;;;;;;4.11;nan;94757.22;6125115;23;20005;-86
2021/12/30 04:33:28;;;;;;;6.40;3.88;;;;;;;4.54;nan;94800.28;6125587;23;20088;-86
2021/12/30 04:35:56;;;;;;;8.43;4.95;;;;;;;2.96;nan;94516.88;6128185;23;20394;-86
2021/12/30 04:38:26;;;;;;;7.47;4.60;;;;;;;4.84;nan;94800.63;6124551;23;20074;-86
2021/12/30 04:40:52;;;;;;;8.80;4.95;;;;;;;5.02;nan;94823.94;6122796;23;20018;-86
2021/12/30 04:43:18;;;;;;;9.20;4.63;;;;;;;2.85;nan;94514.34;6097616;23;20369;-86
2021/12/30 04:45:49;;;;;;;6.57;3.90;;;;;;;2.93;nan;94537.50;6121794;23;20049;-86
2021/12/30 04:48:16;;;;;;;5.45;3.63;;;;;;;1.66;nan;94326.38;6122162;23;20010;-86
2021/12/30 04:50:44;;;;;;;6.35;3.63;;;;;;;4.56;nan;94796.38;6122168;23;20345;-86
2021/12/30 04:53:12;;;;;;;3.45;2.60;;;;;;;2.89;nan;94524.13;6122587;23;20025;-86
2021/12/30 04:55:38;;;;;;;6.72;3.13;;;;;;;1.88;nan;94400.44;6135326;23;20082;-86
2021/12/30 04:58:05;;;;;;;10.23;3.70;;;;;;;4.86;nan;94855.56;6124337;23;20425;-86
2021/12/30 05:00:31;;;;;;;6.18;3.55;;;;;;;1.26;nan;94308.25;6124086;23;20018;-86
2021/12/30 05:05:23;;;;;;;8.23;3.78;;;;;;;4.62;nan;94853.16;6122998;23;20057;-86
2021/12/30 05:07:48;;;;;;;7.35;4.78;;;;;;;4.25;nan;94799.66;6096269;23;20001;-86
2021/12/30 05:10:14;;;;;;;8.98;5.28;;;;;;;2.17;nan;94479.59;6121800;23;20032;-86
2021/12/30 05:12:39;;;;;;;5.43;3.22;;;;;;;3.98;nan;94812.66;6120643;23;20006;-86
2021/12/30 05:15:05;;;;;;;6.45;3.47;;;;;;;3.78;nan;94794.81;6123067;23;20006;-86
2021/12/30 05:17:31;;;;;;;7.20;3.53;;;;;;;4.64;nan;94874.75;6121264;23;20458;-86
2021/12/30 05:19:56;;;;;;;7.85;4.10;;;;;;;2.88;nan;94588.00;6120628;23;20081;-86
2021/12/30 05:22:22;;;;;;;7.45;4.13;;;;;;;4.19;nan;94790.13;6120830;23;20050;-86
2021/12/30 05:24:47;;;;;;;10.32;4.78;;;;;;;3.74;nan;94751.72;6121220;23;20006;-86
2021/12/30 05:27:13;;;;;;;11.18;4.90;;;;;;;4.35;nan;94848.88;6097394;23;20043;-86
2021/12/30 05:29:38;;;;;;;7.15;4.00;;;;;;;3.98;nan;94814.50;6123338;23;20141;-86
2021/12/30 05:32:04;;;;;;;8.68;4.80;;;;;;;3.26;nan;94693.88;6121257;23;20009;-86
2021/12/30 05:34:32;;;;;;;9.45;5.43;;;;;;;4.79;nan;94916.16;6097500;23;20013;-86
2021/12/30 05:36:58;;;;;;;8.60;4.95;;;;;;;4.87;nan;94922.84;6097039;23;20021;-86
2021/12/30 05:39:23;;;;;;;9.90;4.97;;;;;;;3.71;nan;94746.19;6121187;23;20013;-86
2021/12/30 05:41:49;;;;;;;9.35;4.13;;;;;;;4.69;nan;94931.78;6096863;23;20399;-86
2021/12/30 05:44:14;;;;;;;5.43;2.80;;;;;;;4.40;nan;94909.34;6123315;23;20010;-86
2021/12/30 05:46:40;;;;;;;4.40;3.15;;;;;;;4.69;nan;94920.50;6121079;23;20014;-86
2021/12/30 05:49:05;;;;;;;6.75;2.70;;;;;;;4.35;nan;94904.03;6121305;23;20081;-86
2021/12/30 05:51:31;;;;;;;6.32;3.15;;;;;;;4.32;nan;94899.22;6121177;23;20017;-86
2021/12/30 05:53:56;;;;;;;4.63;1.92;;;;;;;2.59;nan;94675.53;6120244;23;20013;-86
2021/12/30 05:56:22;;;;;;;4.07;2.50;;;;;;;3.32;nan;94822.13;6095815;23;20061;-86
2021/12/30 05:58:47;;;;;;;4.78;2.38;;;;;;;3.87;nan;94905.38;6121278;23;20017;-86
2021/12/30 06:01:13;;;;;;;6.97;3.08;;;;;;;4.05;nan;94913.00;6096357;23;20022;-87
2021/12/30 06:03:39;;;;;;;3.72;2.58;;;;;;;3.68;nan;94844.47;6120933;23;20060;-86
2021/12/30 06:06:06;;;;;;;5.25;2.67;;;;;;;3.35;nan;94789.44;6122310;23;20279;-86
2021/12/30 06:08:32;;;;;;;3.22;2.00;;;;;;;3.33;nan;94794.09;6096382;23;20006;-86
2021/12/30 06:10:57;;;;;;;2.95;1.92;;;;;;;3.64;nan;94840.75;6120976;23;20025;-86
2021/12/30 06:13:23;;;;;;;4.40;1.98;;;;;;;2.91;nan;94728.94;6121584;23;20020;-86
2021/12/30 06:15:48;;;;;;;3.13;1.80;;;;;;;3.39;nan;94819.38;6122252;23;20057;-86
2021/12/30 06:18:14;;;;;;;3.25;2.20;;;;;;;4.14;nan;94927.31;6105437;23;20009;-86
2021/12/30 06:20:40;;;;;;;5.30;2.40;;;;;;;4.49;nan;94974.34;6141801;23;20017;-86
2021/12/30 06:23:06;;;;;;;3.58;1.90;;;;;;;3.27;nan;94802.91;6126855;23;20013;-86
2021/12/30 06:25:32;;;;;;;4.65;2.60;;;;;;;3.57;nan;94910.91;6121005;23;20002;-86
2021/12/30 06:27:57;;;;;;;5.20;2.42;;;;;;;2.49;nan;94670.09;6122069;23;20013;-86
2021/12/30 06:30:23;;;;;;;5.82;3.08;;;;;;;3.03;nan;94768.19;6120412;23;20371;-86
2021/12/30 06:32:48;;;;;;;5.93;2.58;;;;;;;4.13;nan;94972.97;6120848;23;20112;-86
2021/12/30 06:35:14;;;;;;;6.05;2.53;;;;;;;3.89;nan;94927.69;6095696;23;20006;-86
2021/12/30 06:37:40;;;;;;;4.78;3.05;;;;;;;4.37;nan;95028.75;6096122;23;20441;-86
2021/12/30 06:40:08;;;;;;;5.85;3.60;;;;;;;2.43;nan;94703.25;6120907;23;20041;-86
2021/12/30 06:42:34;;;;;;;5.10;3.13;;;;;;;3.24;nan;94885.41;6121255;23;20201;-86
2021/12/30 06:44:59;;;;;;;5.28;3.05;;;;;;;1.89;nan;94726.28;6122590;23;20037;-86
2021/12/30 06:47:25;;;;;;;8.23;3.42;;;;;;;0.91;nan;94519.09;6098313;23;20069;-88
2021/12/30 06:49:51;;;;;;;6.13;3.10;;;;;;;3.36;nan;94930.72;6123872;23;20010;-86
2021/12/30 06:52:17;;;;;;;5.07;3.03;;;;;;;3.44;nan;94898.06;6100327;23;20010;-86
2021/12/30 06:54:42;;;;;;;6.47;2.83;;;;;;;3.58;nan;94904.66;6126173;23;20010;-86
2021/12/30 06:57:12;;;;;;;6.90;3.05;;;;;;;2.61;nan;94791.25;6096833;23;20036;-86
2021/12/30 06:59:37;;;;;;;7.80;3.97;;;;;;;4.40;nan;95054.53;6097825;23;20438;-86
2021/12/30 07:02:07;;;;;;;11.00;4.28;;;;;;;4.24;nan;95032.47;6070597;23;20006;-86
2021/12/30 07:04:32;;;;;;;9.05;4.13;;;;;;;3.01;nan;94833.13;6095060;23;20486;-86
2021/12/30 07:06:58;;;;;;;11.80;4.10;;;;;;;3.28;nan;94914.59;6094356;23;20006;-86
2021/12/30 07:09:24;;;;;;;7.43;4.40;;;;;;;2.82;nan;94850.84;6070959;23;20069;-86
2021/12/30 07:11:50;;;;;;;12.30;5.60;;;;;;;3.99;nan;95036.50;6070337;23;20010;-86
2021/12/30 07:14:18;;;;;;;13.07;5.25;;;;;;;4.27;nan;95062.72;6093862;23;20093;-86
2021/12/30 07:16:43;;;;;;;9.02;5.60;;;;;;;4.10;nan;95048.78;6070016;23;20017;-87
2021/12/30 07:19:09;;;;;;;8.15;3.35;;;;;;;1.97;nan;94727.72;6093257;23;20153;-87
2021/12/30 07:21:35;;;;;;;5.18;2.92;;;;;;;3.71;nan;95038.09;6068348;23;20014;-87
2021/12/30 07:24:03;;;;;;;13.90;3.30;;;;;;;0.24;nan;94521.25;6069736;23;20303;-87
2021/12/30 07:26:29;;;;;;;3.92;2.20;;;;;;;-0.95;nan;94347.72;6069910;23;20002;-87
2021/12/30 07:28:54;;;;;;;6.05;2.60;;;;;;;2.02;nan;94784.56;6071869;23;20022;-86
2021/12/30 07:31:20;;;;;;;3.83;1.70;;;;;;;3.27;nan;95033.56;6073841;23;20462;-86
2021/12/30 07:33:45;;;;;;;3.03;1.60;;;;;;;-1.38;nan;94283.69;6095907;23;20034;-86
2021/12/30 07:36:11;;;;;;;5.82;1.80;;;;;;;1.21;nan;94694.72;6069096;23;20066;-86
2021/12/30 07:38:37;;;;;;;2.70;1.67;;;;;;;3.85;nan;95081.38;6069583;23;20093;-86
2021/12/30 07:41:04;;;;;;;3.13;1.70;;;;;;;2.85;nan;94949.91;6069772;23;20052;-87
2021/12/30 07:43:31;;;;;;;5.18;2.00;;;;;;;3.48;nan;95077.50;6068071;23;20043;-87
2021/12/30 07:45:57;;;;;;;4.57;1.90;;;;;;;3.90;nan;95143.63;6092037;23;19998;-86
2021/12/30 07:48:22;;;;;;;4.90;1.98;;;;;;;3.74;nan;95102.38;6092048;23;20197;-86
2021/12/30 07:50:49;;;;;;;3.38;1.83;;;;;;;3.97;nan;95161.91;6075448;23;20062;-86
2021/12/30 07:53:15;;;;;;;3.08;2.10;;;;;;;3.40;nan;95012.31;6075015;23;20089;-86
2021/12/30 07:55:41;;;;;;;5.47;2.22;;;;;;;0.38;nan;94531.25;6070494;23;20033;-86
2021/12/30 07:58:06;;;;;;;9.20;2.65;;;;;;;4.39;nan;95139.59;6068791;23;20073;-86
2021/12/30 08:00:32;;;;;;;7.82;2.33;;;;;;;3.90;nan;95072.78;6068434;23;20007;-86
2021/12/30 08:02:57;;;;;;;6.35;2.85;;;;;;;1.67;nan;94730.50;6092291;23;20426;-86
2021/12/30 08:05:23;;;;;;;8.60;4.13;;;;;;;4.10;nan;95067.94;6068416;23;20442;-86
2021/12/30 08:07:52;;;;;;;11.88;3.22;;;;;;;3.70;nan;95057.47;6094039;23;20446;-86
2021/12/30 08:10:19;;;;;;;8.65;3.47;;;;;;;3.79;nan;95063.16;6067886;23;20447;-86
2021/12/30 08:12:46;;;;;;;6.15;2.83;;;;;;;4.63;nan;95190.19;6068329;23;20097;-87
2021/12/30 08:15:13;;;;;;;11.32;2.92;;;;;;;3.95;nan;95079.97;6094274;23;20014;-86
2021/12/30 08:17:40;;;;;;;9.23;3.40;;;;;;;4.71;nan;95167.97;6068487;23;20007;-86
2021/12/30 08:20:08;;;;;;;11.48;3.33;;;;;;;3.63;nan;95033.22;6069007;23;20189;-86
2021/12/30 08:22:37;;;;;;;9.38;3.47;;;;;;;4.11;nan;95074.00;6069027;23;20411;-87
2021/12/30 08:25:04;;;;;;;9.40;4.07;;;;;;;4.22;nan;95123.00;6093849;23;20021;-87
2021/12/30 08:27:29;;;;;;;5.65;3.15;;;;;;;3.71;nan;95034.69;6092862;23;20340;-86
2021/12/30 08:29:55;;;;;;;20.80;5.47;;;;;;;3.63;nan;95009.63;6095401;23;19994;-86
2021/12/30 08:32:21;;;;;;;8.05;3.28;;;;;;;3.32;nan;94999.56;6069604;23;20504;-86
2021/12/30 08:34:46;;;;;;;12.93;3.15;;;;;;;2.55;nan;94939.56;6093045;23;20011;-86
2021/12/30 08:37:13;;;;;;;8.98;3.22;;;;;;;2.55;nan;94917.84;6068855;23;20055;-86
2021/12/30 08:39:43;;;;;;;13.07;3.20;;;;;;;4.43;nan;95202.91;6068743;23;20114;-86
2021/12/30 08:42:26;;;;;;;7.13;3.92;;;;;;;4.07;nan;95155.00;6069231;23;20020;-87
2021/12/30 08:44:56;;;;;;;8.43;3.72;;;;;;;3.52;nan;95099.59;6069030;23;20006;-86
2021/12/30 08:47:23;;;;;;;10.18;4.20;;;;;;;1.89;nan;94859.63;6092866;23;20014;-86
2021/12/30 08:49:50;;;;;;;18.05;4.47;;;;;;;3.27;nan;95049.28;6068790;23;20013;-86
2021/12/30 08:52:18;;;;;;;10.05;4.90;;;;;;;4.45;nan;95230.56;6093173;23;20021;-86
2021/12/30 08:54:45;;;;;;;13.68;4.85;;;;;;;4.42;nan;95233.66;6093171;23;20116;-86
2021/12/30 08:57:11;;;;;;;14.40;5.88;;;;;;;3.84;nan;95170.81;6119877;23;20399;-87
2021/12/30 08:59:37;;;;;;;10.27;3.97;;;;;;;4.06;nan;95213.75;6122866;23;20096;-87
2021/12/30 09:02:05;;;;;;;6.35;3.13;;;;;;;3.65;nan;95167.53;6098688;23;20350;-86
2021/12/30 09:04:31;;;;;;;7.10;2.83;;;;;;;3.95;nan;95179.69;6123631;23;20399;-86
2021/12/30 09:06:57;;;;;;;15.85;2.40;;;;;;;3.19;nan;95115.94;6123692;23;20005;-87
2021/12/30 09:09:23;;;;;;;4.05;1.95;;;;;;;4.02;nan;95217.91;6122369;23;20041;-86
2021/12/30 09:11:48;;;;;;;5.20;2.05;;;;;;;3.78;nan;95184.84;6122169;23;20056;-87
2021/12/30 09:14:14;;;;;;;9.75;3.20;;;;;;;4.07;nan;95211.94;6098030;23;20010;-86
2021/12/30 09:16:43;;;;;;;7.18;2.50;;;;;;;3.61;nan;95124.44;6097506;23;20089;-86
2021/12/30 09:19:09;;;;;;;8.10;2.70;;;;;;;4.13;nan;95245.13;6122257;23;20109;-86
2021/12/30 09:21:39;;;;;;;6.03;2.35;;;;;;;3.67;nan;95128.75;6098278;23;20005;-86
2021/12/30 09:24:07;;;;;;;12.38;2.80;;;;;;;2.65;nan;94946.84;6123194;23;20048;-87
2021/12/30 09:26:33;;;;;;;11.63;3.00;;;;;;;3.55;nan;95096.53;6122564;23;20383;-86
2021/12/30 09:28:59;;;;;;;9.93;2.80;;;;;;;4.86;nan;95268.91;6098459;23;20009;-86
2021/12/30 09:31:24;;;;;;;7.32;3.08;;;;;;;2.07;nan;94842.22;6098288;23;20002;-86
2021/12/30 09:33:50;;;;;;;18.15;4.15;;;;;;;4.68;nan;95247.25;6124737;23;20449;-86
2021/12/30 09:36:16;;;;;;;7.82;3.50;;;;;;;4.38;nan;95201.00;6098578;23;20099;-86
2021/12/30 09:38:41;;;;;;;4.65;2.72;;;;;;;4.58;nan;95232.88;6122753;23;20060;-87
2021/12/30 09:41:07;;;;;;;16.02;3.83;;;;;;;0.96;nan;94634.09;6097958;23;20078;-86
2021/12/30 09:43:34;;;;;;;7.30;3.50;;;;;;;3.23;nan;94959.81;6121452;23;20006;-86
2021/12/30 09:46:00;;;;;;;7.60;3.25;;;;;;;5.21;nan;95270.53;6121417;23;20180;-86
2021/12/30 09:48:26;;;;;;;13.55;3.40;;;;;;;5.21;nan;95258.19;6122653;23;20044;-86
2021/12/30 09:50:54;;;;;;;15.85;3.80;;;;;;;3.51;nan;94979.25;6121943;23;20024;-86
2021/12/30 09:53:25;;;;;;;10.52;3.50;;;;;;;2.80;nan;94873.84;6121788;23;20092;-86
2021/12/30 09:55:52;;;;;;;6.18;3.90;;;;;;;4.77;nan;95201.19;6121622;23;20084;-86
2021/12/30 09:58:19;;;;;;;5.43;3.88;;;;;;;4.86;nan;95197.16;6122232;23;20021;-86
2021/12/30 10:00:45;;;;;;;6.78;3.80;;;;;;;5.12;nan;95248.28;6123896;23;20010;-86
2021/12/30 10:03:11;;;;;;;6.15;3.70;;;;;;;4.09;nan;95123.28;6099594;23;20010;-86
2021/12/30 10:05:39;;;;;;;9.43;3.83;;;;;;;5.10;nan;95248.56;6123826;23;20043;-86
2021/12/30 10:08:16;;;;;;;10.40;3.70;;;;;;;5.32;nan;95269.69;6121709;23;20101;-86
2021/12/30 10:10:49;;;;;;;8.60;4.40;;;;;;;5.02;nan;95254.19;6123719;23;20365;-86
2021/12/30 10:13:19;;;;;;;11.15;3.80;;;;;;;2.71;nan;94894.38;6096216;23;20025;-86
2021/12/30 10:15:47;;;;;;;7.95;4.22;;;;;;;0.24;nan;94489.97;6122408;23;20073;-86
2021/12/30 10:18:14;;;;;;;8.15;4.03;;;;;;;5.17;nan;95243.13;6121513;23;20009;-87
2021/12/30 10:20:42;;;;;;;8.18;4.35;;;;;;;5.40;nan;95283.25;6121767;23;20049;-86
2021/12/30 10:23:15;;;;;;;13.75;5.10;;;;;;;4.49;nan;95166.03;6121964;23;20296;-86
2021/12/30 10:25:46;;;;;;;11.02;4.80;;;;;;;5.47;nan;95282.28;6097633;23;20018;-87
2021/12/30 10:28:34;;;;;;;9.55;4.35;;;;;;;3.52;nan;94984.22;6120947;23;20010;-86
2021/12/30 10:31:12;;;;;;;12.77;5.10;;;;;;;5.57;nan;95285.09;6123246;23;20076;-86
2021/12/30 10:33:45;;;;;;;14.32;5.65;;;;;;;5.24;nan;95239.31;6097340;23;20045;-86
2021/12/30 10:36:16;;;;;;;13.25;5.65;;;;;;;4.94;nan;95191.50;6122254;23;20488;-86
2021/12/30 10:38:42;;;;;;;10.30;4.30;;;;;;;5.62;nan;95285.97;6123191;23;20040;-86
2021/12/30 10:41:08;;;;;;;9.30;4.40;;;;;;;5.67;nan;95285.22;6130053;23;20009;-86
2021/12/30 10:46:27;;;;;;;10.95;5.25;;;;;;;3.54;nan;95018.88;6123477;23;20390;-86
2021/12/30 10:49:22;;;;;;;12.18;5.57;;;;;;;5.57;nan;95285.84;6097517;23;20109;-86
2021/12/30 10:51:51;;;;;;;10.05;5.75;;;;;;;5.04;nan;95196.91;6094750;23;20053;-86
2021/12/30 10:54:21;;;;;;;14.55;7.78;;;;;;;5.12;nan;95253.56;6116934;23;20033;-86
2021/12/30 10:56:53;;;;;;;14.15;6.20;;;;;;;4.02;nan;95060.44;6121051;23;20028;-86
2021/12/30 10:59:20;;;;;;;11.50;6.15;;;;;;;2.67;nan;94827.75;6121728;23;20013;-86
2021/12/30 11:01:52;;;;;;;9.02;5.28;;;;;;;5.80;nan;95284.91;6120926;23;20470;-86
2021/12/30 11:04:19;;;;;;;14.93;6.60;;;;;;;4.65;nan;95117.19;6096716;23;20010;-86
2021/12/30 11:06:46;;;;;;;13.27;6.43;;;;;;;5.67;nan;95293.13;6098412;23;20097;-86
2021/12/30 11:09:21;;;;;;;15.43;7.50;;;;;;;5.54;nan;95291.63;6122592;23;20478;-87
2021/12/30 11:11:53;;;;;;;15.95;5.60;;;;;;;4.77;nan;95159.16;6121775;23;20065;-86
2021/12/30 11:14:35;;;;;;;13.02;6.47;;;;;;;5.73;nan;95315.84;6122132;23;20069;-86
2021/12/30 11:17:05;;;;;;;;;;;;;;;5.72;nan;95304.50;6125314;23;20013;-86
2021/12/30 11:19:36;;;;;;;10.15;5.15;;;;;;;4.68;nan;95176.31;6099567;23;19921;-87
2021/12/30 11:22:05;;;;;;;14.80;6.25;;;;;;;3.13;nan;94954.38;6124124;23;20370;-87
2021/12/30 11:24:32;;;;;;;13.32;6.15;;;;;;;3.97;nan;95078.69;6122964;23;20074;-87
2021/12/30 11:26:59;;;;;;;18.48;6.82;;;;;;;4.62;nan;95205.13;6098314;23;20016;-87
2021/12/30 11:29:28;;;;;;;17.02;6.43;;;;;;;5.49;nan;95290.75;6097521;23;20009;-87
2021/12/30 11:31:53;;;;;;;18.70;7.60;;;;;;;5.91;nan;95335.91;6123661;23;20013;-86
2021/12/30 11:34:22;;;;;;;17.70;8.07;;;;;;;4.93;nan;95203.03;6123990;23;20041;-86
2021/12/30 11:36:48;;;;;;;19.73;8.57;;;;;;;5.69;nan;95305.00;6121678;23;20025;-86
2021/12/30 11:39:17;;;;;;;21.55;5.32;;;;;;;4.15;nan;95088.22;6121799;23;20504;-86
2021/12/30 11:42:03;;;;;;;11.50;5.80;;;;;;;2.70;nan;94839.59;6122182;23;20363;-86
2021/12/30 11:44:37;;;;;;;15.15;5.88;;;;;;;5.82;nan;95298.63;6097914;23;20009;-86
2021/12/30 11:47:04;;;;;;;14.88;5.07;;;;;;;5.91;nan;95302.47;6097282;23;20006;-86
2021/12/30 11:49:50;;;;;;;14.15;5.03;;;;;;;6.11;nan;95329.09;6124198;23;20010;-86
2021/12/30 11:52:55;;;;;;;8.68;3.53;;;;;;;5.90;nan;95323.75;6124500;23;20069;-86
2021/12/30 11:55:45;;;;;;;10.02;3.42;;;;;;;5.70;nan;95329.50;6124991;23;20120;-87
2021/12/30 11:58:31;;;;;;;7.60;3.90;;;;;;;5.79;nan;95323.59;6125637;23;20428;-86
2021/12/30 12:01:27;;;;;;;8.38;3.67;;;;;;;6.04;nan;95322.41;6100215;23;20014;-86
2021/12/30 12:03:53;;;;;;;8.43;4.15;;;;;;;6.17;nan;95314.19;6124670;23;20343;-86